Winterthur, Switzerland
Current Conditions -  °F | °C
As of 10:50 AM on Wednesday 26 Nov 2014 (Local Time) from LSMD Reporting Station
Overcast Overcast  
Wind Chill: 46°   Ceiling: 800
Heat Index: 46°   Visibility: 6mi
Dew Point: 43°   Wind: 3mph
Humidity: 87%   Direction: 80°E
Pressure: 30"   Gusts: NA
Location:  47.51°N, 8.72°E
Report Text: LSMD 260950Z 08003KT 9999 OVC008 08/06 Q1016 RMK YLO
Loading
Personal Weather Stations






























Interactive Weather Map New forecast layout! Learn more

10-Day Weather Forecast

Advertisements
Track Severe Weather on mobile